2000 Severe Tropical Cyclone SAM (2000333S11140)


IBTrACS version v04r00. Visit IBTrACS website for data access.
Please direct all questions to the IBTrACS Q and A forum

Storm track - Intensity - Wind Radii - Intensity Data - Source Data - All data

Summary Information

Satellite image near maximum intensity
Storm ID 2000333S11140
Start Nov 28 00Z
Landfall Dec 4 00Z, Dec 8 15Z
Max Intensity 110 kt (Dec 7 18Z), 935 mb (Dec 8 13Z)
End Dec 14 00Z
ATCF IDs ,SH032001
Track status Best track data.

Storm track plot

Map of storm track

Intensity plots

Map of storm track

Radial wind information

Map of storm track

Position and Intensity Table

BASIN ISO_TIME_________ NATURE LAT LON WMO WIND WMO PRES USA WIND BOM WIND BOM PRES NEUMANN WIND
degrees north degrees east kts mb kts kts mb kts
SP 2000-11-28 00:00:00 NR -11.00 140.00 20 1005 20 1005
SP 03:00:00 NR -11.01 139.37 22 1003
SP 06:00:00 NR -11.00 138.70 25 1001 25 1001
SP 09:00:00 NR -10.96 137.99 25 1002
SP 12:00:00 NR -10.90 137.30 25 1003 25 1003
SP 15:00:00 NR -10.81 136.68 25 1002
SP 18:00:00 NR -10.70 136.10 25 1002 25 1002
SP 21:00:00 NR -10.61 135.53 25 1002
SP 2000-11-29 00:00:00 NR -10.50 135.00 25 1003 25 1003
SI 03:00:00 NR -10.35 134.55 25 1002
SI 06:00:00 NR -10.20 134.10 25 1001 25 1001
SI 09:00:00 NR -10.08 133.56 25 1002
SI 12:00:00 NR -10.00 133.00 25 1003 25 1003
SI 15:00:00 NR -9.98 132.49 25 1002
SI 18:00:00 NR -10.00 132.00 25 1001 25 1001
SI 21:00:00 NR -10.00 131.50 25 1002
SI 2000-11-30 00:00:00 NR -10.00 131.00 25 1003 25 1003
SI 03:00:00 NR -10.00 130.46 25 1002
SI 06:00:00 NR -10.00 130.00 25 1001 25 1001
SI 09:00:00 NR -10.00 129.69 25 1001
SI 12:00:00 NR -10.00 129.50 25 1002 25 1002
SI 15:00:00 NR -9.99 129.38 25 1001
SI 18:00:00 NR -10.00 129.30 25 1001 25 1001
SI 21:00:00 NR -10.04 129.14 25 1002
SI 2000-12-01 00:00:00 NR -10.10 129.00 25 1003 25 1003
SI 03:00:00 NR -10.19 128.93 25 1002
SI 06:00:00 NR -10.30 128.90 25 1001 25 1001
SI 09:00:00 NR -10.41 128.85 25 1001
SI 12:00:00 NR -10.50 128.80 25 1001 25 1001
SI 15:00:00 NR -10.56 128.75 25 1000
SI 18:00:00 NR -10.60 128.70 25 1000 25 1000
SI 21:00:00 NR -10.64 128.66 25 1000
SI 2000-12-02 00:00:00 NR -10.70 128.60 25 1001 25 1001
SI 03:00:00 NR -10.80 128.51 25 1000
SI 06:00:00 NR -10.90 128.40 25 999 25 999
SI 09:00:00 NR -10.95 128.29 25 999
SI 12:00:00 NR -11.00 128.20 25 1000 25 1000
SI 15:00:00 NR -11.08 128.13 25 999
SI 18:00:00 NR -11.20 128.10 25 998 25 998
SI 21:00:00 NR -11.33 128.13 25 999
SI 2000-12-03 00:00:00 TS -11.40 128.07 25 1000 25 25 1000 25
SI 03:00:00 TS -11.74 128.17 25 27 998 25
SI 06:00:00 TS -12.12 128.28 30 997 25 30 997 25
SI 09:00:00 TS -12.44 128.32 25 30 997 25
SI 12:00:00 TS -12.73 128.30 30 997 25 30 997 25
SI 15:00:00 TS -13.11 128.28 27 30 997 27
SI 18:00:00 TS -13.50 128.17 30 997 30 30 997 30
SI 21:00:00 TS -13.89 127.94 30 30 997 30
SI 2000-12-04 00:00:00 TS -14.20 127.60 30 998 30 30 998 30
SI 03:00:00 TS -14.36 127.17 30 30 997 30
SI 06:00:00 TS -14.43 126.70 30 996 30 30 996 30
SI 09:00:00 TS -14.50 126.25 30 32 995 30
SI 12:00:00 TS -14.53 125.83 35 994 30 35 994 30
SI 15:00:00 TS -14.55 125.48 30 35 994 30
SI 18:00:00 TS -14.53 125.17 35 994 30 35 994 30
SI 21:00:00 TS -14.49 124.85 30 37 993 30
SI 2000-12-05 00:00:00 TS -14.43 124.53 40 992 30 40 992 30
SI 03:00:00 TS -14.38 124.19 30 40 990 30
SI 04:00:00 TS -14.36 124.08 40 990 30 40 990 30
SI 06:00:00 TS -14.34 123.86 30 43 988 30
SI 09:00:00 TS -14.33 123.56 32 48 985 32
SI 10:00:00 TS -14.33 123.47 50 985 33 50 985 33
SI 12:00:00 TS -14.35 123.29 35 51 983 35
SI 15:00:00 TS -14.41 123.00 35 54 980 35
SI 16:00:00 TS -14.44 122.91 55 980 35 55 980 35
SI 18:00:00 TS -14.50 122.70 35 55 980 35
SI 21:00:00 TS -14.61 122.43 40 55 980 40
SI 22:00:00 TS -14.65 122.35 55 980 41 55 980 41
SI 2000-12-06 00:00:00 TS -14.71 122.24 45 56 978 45
SI 03:00:00 TS -14.78 122.09 45 59 975 45
SI 04:00:00 TS -14.81 122.05 60 975 45 60 975 45
SI 06:00:00 TS -14.91 121.95 45 60 975 45
SI 09:00:00 TS -15.11 121.86 47 60 975 47
SI 10:00:00 TS -15.19 121.83 60 975 48 60 975 48
SI 12:00:00 TS -15.38 121.80 50 60 975 50
SI 15:00:00 TS -15.72 121.77 52 60 975 52
SI 16:00:00 TS -15.84 121.75 60 975 53 60 975 53
SI 18:00:00 TS -16.07 121.72 55 60 975 55
SI 19:00:00 TS -16.17 121.69 60 975 56 60 975 56
SI 21:00:00 TS -16.38 121.63 60 63 971 60
SI 22:00:00 TS -16.48 121.59 65 970 61 65 970 61
SI 2000-12-07 00:00:00 TS -16.67 121.52 65 65 970 65
SI 01:00:00 TS -16.76 121.48 65 970 66 65 970 66
SI 03:00:00 TS -16.94 121.39 70 65 970 70
SI 04:00:00 TS -17.03 121.35 65 970 71 65 970 71
SI 06:00:00 TS -17.23 121.25 75 65 970 75
SI 07:00:00 TS -17.32 121.21 65 970 76 65 970 76
SI 09:00:00 TS -17.47 121.14 80 71 966 80
SI 10:00:00 TS -17.53 121.11 75 965 81 75 965 81
SI 12:00:00 TS -17.62 121.04 85 78 961 85
SI 13:00:00 TS -17.66 121.02 80 960 89 80 960 89
SI 15:00:00 TS -17.73 120.97 97 86 956 97
SI 16:00:00 TS -17.76 120.95 90 955 101 90 955 101
SI 18:00:00 TS -17.82 120.93 110 90 951 110
SI 19:00:00 TS -17.86 120.93 90 950 110 90 950 110
SI 21:00:00 TS -17.93 120.92 110 90 950 110
SI 22:00:00 TS -17.96 120.92 90 950 110 90 950 110
SI 2000-12-08 00:00:00 TS -18.05 120.95 110 90 950 110
SI 01:00:00 TS -18.10 120.98 90 950 110 90 950 110
SI 03:00:00 TS -18.18 121.04 110 90 950 110
SI 04:00:00 TS -18.23 121.08 90 950 110 90 950 110
SI 06:00:00 TS -18.37 121.18 110 96 946 110
SI 07:00:00 TS -18.44 121.23 100 945 109 100 945 109
SI 09:00:00 TS -18.57 121.34 107 106 941 107
SI 10:00:00 TS -18.64 121.40 110 940 106 110 940 106
SI 12:00:00 TS -18.80 121.52 105 110 936 105
SI 13:00:00 TS -18.88 121.56 110 935 103 110 935 103
SI 15:00:00 TS -19.03 121.62 100 103 938 100
SI 16:00:00 TS -19.11 121.66 100 940 98 100 940 98
SI 18:00:00 TS -19.22 121.79 95 90 946 95
SI 19:00:00 TS -19.28 121.87 85 950 92 85 950 92
SI 21:00:00 TS -19.43 122.03 87 81 953 87
SI 22:00:00 TS -19.51 122.10 80 955 84 80 955 84
SI 2000-12-09 00:00:00 TS -19.70 122.25 80 73 958 80
SI 01:00:00 TS -19.80 122.32 70 960 78 70 960 78
SI 03:00:00 TS -20.01 122.48 75 66 963 75
SI 04:00:00 TS -20.11 122.56 65 965 73 65 965 73
SI 06:00:00 TS -20.30 122.73 70 61 968 70
SI 07:00:00 TS -20.39 122.81 60 970 67 60 970 67
SI 09:00:00 TS -20.53 122.98 62 56 973 62
SI 10:00:00 TS -20.59 123.07 55 975 59 55 975 59
SI 12:00:00 TS -20.71 123.24 55 51 978 55
SI 13:00:00 TS -20.77 123.33 50 980 54 50 980 54
SI 15:00:00 TS -20.87 123.53 52 46 980 52
SI 16:00:00 TS -20.91 123.63 45 980 51 45 980 51
SI 18:00:00 TS -20.99 123.82 50 41 981 50
SI 21:00:00 TS -21.10 124.08 47 36 984 47
SI 22:00:00 TS -21.13 124.17 35 985 46 35 985 46
SI 2000-12-10 00:00:00 TS -21.21 124.37 45 35 985 45
SI 03:00:00 TS -21.32 124.68 42 35 985 42
SI 04:00:00 TS -21.35 124.78 35 985 41 35 985 41
SI 06:00:00 TS -21.41 124.94 40 33 986 40
SI 09:00:00 TS -21.50 125.12 35 30 989 35
SI 10:00:00 TS -21.52 125.18 30 990 33 30 990 33
SI 12:00:00 TS -21.56 125.32 30 30 990 30
SI 15:00:00 TS -21.54 125.56 27 30 990 27
SI 18:00:00 TS -21.50 125.80 30 990 25 30 990 25
SI 21:00:00 NR -21.55 125.86 30 991
SI 2000-12-11 00:00:00 NR -21.50 126.00 30 992 30 992
SI 03:00:00 NR -21.46 126.38 30 994
SI 06:00:00 NR -21.40 126.90 30 996 30 996
SI 09:00:00 NR -21.35 127.48 30 995
SI 12:00:00 NR -21.20 128.00 30 995 30 995
SI 15:00:00 NR -20.87 128.29 30 994
SI 18:00:00 NR -20.50 128.50 30 994 30 994
SI 21:00:00 NR -20.19 128.75 30 993
SI 2000-12-12 00:00:00 NR -20.00 129.00 30 992 30 992
SI 03:00:00 NR -19.98 129.25 30 991
SI 06:00:00 NR -20.10 129.50 30 990 30 990
SI 09:00:00 NR -20.31 129.71 30 988
SI 12:00:00 NR -20.50 130.00 30 987 30 987
SI 15:00:00 NR -20.53 130.46 30 988
SI 18:00:00 NR -20.50 131.00 30 989 30 989
SI 21:00:00 NR -20.50 131.50 30 989
SI 2000-12-13 00:00:00 NR -20.50 132.00 30 990 30 990
SI 03:00:00 NR -20.50 132.50 30 991
SI 06:00:00 NR -20.50 133.00 30 992 30 992
SI 09:00:00 NR -20.50 133.51 30 993
SI 12:00:00 NR -20.50 134.00 30 994 30 994
SI 15:00:00 NR -20.50 134.42 30 995
SI 18:00:00 NR -20.50 134.80 30 996 30 996
SP 21:00:00 NR -20.50 135.15 30 997
SP 2000-12-14 00:00:00 NR -20.50 135.50 30 998 30 998

Source Information

Agency Information
USA bsh032001.txt
TOKYO
CMA
HKO
NEWDELHI
REUNION
BOM IDCKMSTM0S.csv:Line=20878:SAM
NADI
WELLINGTON
DS824
TD9636
TD9635
NEUMANN tracks.sh:Storm=1206:SAM:BSH032001:JTWC
MLC

All available IBTrACS Data

SEASON BASIN SUBBASIN ISO_TIME_________ NATURE LAT LON WMO WIND WMO PRES WMO AGENCY DIST2LAND LANDFALL IFLAG USA AGENCY USA ATCF_ID USA LAT USA LON USA STATUS USA WIND USA SSHS BOM LAT BOM LON BOM TYPE BOM WIND BOM PRES BOM CI BOM ROCI BOM EYE BOM POS_METHOD BOM PRES_METHOD NEUMANN LAT NEUMANN LON NEUMANN CLASS NEUMANN WIND STORM SPEED STORM DIR
Year degrees north degrees east kts mb km km degrees north degrees east kts 1 degrees north degrees east kts mb 1 nmile nmile degrees north degrees east kts kts degrees
2001 SP EA 2000-11-28 00:00:00 NR -11.00 140.00 20 1005 bom 228 228 ______O_______ -1 -11.00 140.00 20 20 1005 1.00 12 269
2001 SP EA 03:00:00 NR -11.01 139.37 274 235 ______P_______ -1 -11.01 139.37 20 22 1003 13 270
2001 SP EA 06:00:00 NR -11.00 138.70 25 1001 bom 235 181 ______O_______ -1 -11.00 138.70 20 25 1001 1.50 13 272
2001 SP EA 09:00:00 NR -10.96 137.99 181 150 ______P_______ -1 -10.96 137.99 20 25 1002 14 274
2001 SP EA 12:00:00 NR -10.90 137.30 25 1003 bom 150 130 ______O_______ -1 -10.90 137.30 20 25 1003 1.50 13 277
2001 SP EA 15:00:00 NR -10.81 136.68 136 134 ______P_______ -1 -10.81 136.68 20 25 1002 12 280
2001 SP EA 18:00:00 NR -10.70 136.10 25 1002 bom 151 151 ______O_______ -1 -10.70 136.10 20 25 1002 1.50 11 280
2001 SP EA 21:00:00 NR -10.61 135.53 168 168 ______P_______ -1 -10.61 135.53 20 25 1002 11 280
2001 SP EA 2000-11-29 00:00:00 NR -10.50 135.00 25 1003 bom 180 179 ______O_______ -1 -10.50 135.00 20 25 1003 1.50 10 285
2001 SI WA 03:00:00 NR -10.35 134.55 189 176 ______P_______ -1 -10.35 134.55 20 25 1002 9 289
2001 SI WA 06:00:00 NR -10.20 134.10 25 1001 bom 182 164 ______O_______ -1 -10.20 134.10 20 25 1001 1.50 10 286
2001 SI WA 09:00:00 NR -10.08 133.56 164 154 ______P_______ -1 -10.08 133.56 20 25 1002 11 280
2001 SI WA 12:00:00 NR -10.00 133.00 25 1003 bom 154 136 ______O_______ -1 -10.00 133.00 20 25 1003 1.50 11 275
2001 SI WA 15:00:00 NR -9.98 132.49 136 134 ______P_______ -1 -9.98 132.49 20 25 1002 10 270
2001 SI WA 18:00:00 NR -10.00 132.00 25 1001 bom 134 134 ______O_______ -1 -10.00 132.00 20 25 1001 1.50 10 269
2001 SI WA 21:00:00 NR -10.00 131.50 145 145 ______P_______ -1 -10.00 131.50 20 25 1002 10 270
2001 SI WA 2000-11-30 00:00:00 NR -10.00 131.00 25 1003 bom 146 145 ______O_______ -1 -10.00 131.00 20 25 1003 1.50 10 270
2001 SI WA 03:00:00 NR -10.00 130.46 145 145 ______P_______ -1 -10.00 130.46 20 25 1002 10 270
2001 SI WA 06:00:00 NR -10.00 130.00 25 1001 bom 155 155 ______O_______ -1 -10.00 130.00 20 25 1001 1.50 8 270
2001 SI WA 09:00:00 NR -10.00 129.69 166 166 ______P_______ -1 -10.00 129.69 20 25 1001 5 270
2001 SI WA 12:00:00 NR -10.00 129.50 25 1002 bom 174 174 ______O_______ -1 -10.00 129.50 20 25 1002 1.50 3 271
2001 SI WA 15:00:00 NR -9.99 129.38 179 179 ______P_______ -1 -9.99 129.38 20 25 1001 2 270
2001 SI WA 18:00:00 NR -10.00 129.30 25 1001 bom 185 185 ______O_______ -1 -10.00 129.30 20 25 1001 1.50 2 260
2001 SI WA 21:00:00 NR -10.04 129.14 197 188 ______P_______ -1 -10.04 129.14 20 25 1002 3 251
2001 SI WA 2000-12-01 00:00:00 NR -10.10 129.00 25 1003 bom 195 187 ______O_______ -1 -10.10 129.00 20 25 1003 1.50 3 233
2001 SI WA 03:00:00 NR -10.19 128.93 195 187 ______P_______ -1 -10.19 128.93 20 25 1002 2 207
2001 SI WA 06:00:00 NR -10.30 128.90 25 1001 bom 187 179 ______O_______ -1 -10.30 128.90 20 25 1001 2.00 2 201
2001 SI WA 09:00:00 NR -10.41 128.85 179 179 ______P_______ -1 -10.41 128.85 20 25 1001 2 207
2001 SI WA 12:00:00 NR -10.50 128.80 25 1001 bom 180 174 ______O_______ -1 -10.50 128.80 20 25 1001 2.00 2 212
2001 SI WA 15:00:00 NR -10.56 128.75 174 174 ______P_______ -1 -10.56 128.75 20 25 1000 1 223
2001 SI WA 18:00:00 NR -10.60 128.70 25 1000 bom 183 183 ______O_______ -1 -10.60 128.70 20 25 1000 2.00 1 227
2001 SI WA 21:00:00 NR -10.64 128.66 183 183 ______P_______ -1 -10.64 128.66 20 25 1000 1 223
2001 SI WA 2000-12-02 00:00:00 NR -10.70 128.60 25 1001 bom 186 181 ______O_______ -1 -10.70 128.60 20 25 1001 2.00 2 223
2001 SI WA 03:00:00 NR -10.80 128.51 191 187 ______P_______ -1 -10.80 128.51 20 25 1000 3 225
2001 SI WA 06:00:00 NR -10.90 128.40 25 999 bom 197 197 ______O_______ -1 -10.90 128.40 20 25 999 2.00 3 234
2001 SI WA 09:00:00 NR -10.95 128.29 204 204 ______P_______ -1 -10.95 128.29 20 25 999 2 243
2001 SI WA 12:00:00 NR -11.00 128.20 25 1000 bom 214 214 ______O_______ -1 -11.00 128.20 20 25 1000 2.00 2 231
2001 SI WA 15:00:00 NR -11.08 128.13 222 220 ______P_______ -1 -11.08 128.13 20 25 999 2 207
2001 SI WA 18:00:00 NR -11.20 128.10 25 998 bom 220 219 ______O_______ -1 -11.20 128.10 20 25 998 2.00 2 174
2001 SI WA 21:00:00 NR -11.33 128.13 219 218 ______P_______ -1 -11.33 128.13 20 25 999 2 193
2001 SI WA 2000-12-03 00:00:00 TS -11.40 128.07 25 1000 bom 218 207 O_____O_____O_ jtwc_sh SH032001 -11.20 127.80 TD 25 -1 -11.50 128.20 20 25 1000 2.00 -11.20 127.80 TC 25 4 174
2001 SI WA 03:00:00 TS -11.74 128.17 207 197 P_____P_____P_ SH032001 -11.75 128.04 TD 25 -1 -11.73 128.30 20 27 998 -11.75 128.04 TC 25 8 164
2001 SI WA 06:00:00 TS -12.12 128.28 30 997 bom 198 198 O_____O_____O_ jtwc_sh SH032001 -12.20 128.20 TD 25 -1 -12.00 128.40 20 30 997 2.50 -12.20 128.20 TC 25 7 168
2001 SI WA 09:00:00 TS -12.44 128.32 203 175 P_____P_____P_ SH032001 -12.51 128.24 TD 25 -1 -12.28 128.48 20 30 997 -12.51 128.24 TC 25 6 0
2001 SI WA 12:00:00 TS -12.73 128.30 30 997 bom 175 139 O_____O_____O_ jtwc_sh SH032001 -12.80 128.20 TD 25 -1 -12.60 128.50 20 30 997 2.50 -12.80 128.20 TC 25 7 182
2001 SI WA 15:00:00 TS -13.11 128.28 139 95 P_____P_____P_ SH032001 -13.19 128.19 TD 27 -1 -12.94 128.46 20 30 997 -13.19 128.19 TC 27 8 189
2001 SI WA 18:00:00 TS -13.50 128.17 30 997 bom 95 46 O_____O_____O_ jtwc_sh SH032001 -13.60 128.10 TD 30 -1 -13.30 128.30 20 30 997 2.50 -13.60 128.10 TC 30 9 203
2001 SI WA 21:00:00 TS -13.89 127.94 39 0 P_____P_____P_ SH032001 -13.99 127.92 TD 30 -1 -13.68 127.99 20 30 997 -13.99 127.92 TC 30 9 218
2001 SI WA 2000-12-04 00:00:00 TS -14.20 127.60 30 998 bom 0 0 O_____O_____O_ jtwc_sh SH032001 -14.30 127.60 TD 30 -1 -14.00 127.60 20 30 998 2.50 -14.30 127.60 TC 30 9 238
2001 SI WA 03:00:00 TS -14.36 127.17 0 0 P_____P_____P_ SH032001 -14.45 127.13 TD 30 -1 -14.19 127.26 20 30 997 -14.45 127.13 TC 30 9 255
2001 SI WA 06:00:00 TS -14.43 126.70 30 996 bom 0 0 O_____O_____O_ jtwc_sh SH032001 -14.50 126.60 TD 30 -1 -14.30 126.90 20 30 996 2.50 134 3 7 -14.50 126.60 TC 30 9 261
2001 SI WA 09:00:00 TS -14.50 126.25 0 0 P_____P_____P_ SH032001 -14.56 126.12 TD 30 -1 -14.37 126.51 20 32 995 134 -14.56 126.12 TC 30 8 263
2001 SI WA 12:00:00 TS -14.53 125.83 35 994 bom 10 0 O_____O_____O_ jtwc_sh SH032001 -14.60 125.70 TD 30 -1 -14.40 126.10 30 35 994 3.00 134 3 7 -14.60 125.70 TC 30 7 266
2001 SI WA 15:00:00 TS -14.55 125.48 10 10 P_____P_____P_ SH032001 -14.61 125.38 TD 30 -1 -14.42 125.68 30 35 994 161 -14.61 125.38 TC 30 6 270
2001 SI WA 18:00:00 TS -14.53 125.17 35 994 bom 11 11 O_____O_____O_ jtwc_sh SH032001 -14.60 125.10 TD 30 -1 -14.40 125.30 30 35 994 3.00 188 3 7 -14.60 125.10 TC 30 6 275
2001 SI WA 21:00:00 TS -14.49 124.85 34 34 P_____P_____P_ SH032001 -14.55 124.76 TD 30 -1 -14.38 125.04 30 37 993 188 -14.55 124.76 TC 30 6 279
2001 SI WA 2000-12-05 00:00:00 TS -14.43 124.53 40 992 bom 78 78 O_____O_____O_ jtwc_sh SH032001 -14.50 124.40 TD 30 -1 -14.30 124.80 30 40 992 3.00 188 3 5 -14.50 124.40 TC 30 6 280
2001 SI WA 03:00:00 TS -14.38 124.19 110 110 P_____P_____P_ SH032001 -14.49 124.04 TD 30 -1 -14.15 124.51 30 40 990 188 -14.49 124.04 TC 30 7 279
2001 SI WA 04:00:00 TS -14.36 124.08 40 990 bom 116 116 P_____O_____P_ SH032001 -14.49 123.92 TD 30 -1 -14.10 124.40 30 40 990 3.00 188 3 5 -14.49 123.92 TC 30 7 276
2001 SI WA 06:00:00 TS -14.34 123.86 139 139 O_____P_____O_ jtwc_sh SH032001 -14.50 123.70 TD 30 -1 -14.03 124.18 30 43 988 188 -14.50 123.70 TC 30 6 274
2001 SI WA 09:00:00 TS -14.33 123.56 163 163 P_____P_____P_ SH032001 -14.49 123.43 TD 32 -1 -13.99 123.82 30 48 985 188 -14.49 123.43 TC 32 6 272
2001 SI WA 10:00:00 TS -14.33 123.47 50 985 bom 172 172 P_____O_____P_ SH032001 -14.49 123.36 TD 33 -1 -14.00 123.70 30 50 985 3.50 188 3 5 -14.49 123.36 TC 33 5 266
2001 SI WA 12:00:00 TS -14.35 123.29 187 178 O_____P_____O_ jtwc_sh SH032001 -14.50 123.20 TS 35 0 -14.04 123.47 30 51 983 196 -14.50 123.20 TC 35 6 260
2001 SI WA 15:00:00 TS -14.41 123.00 201 201 P_____P_____P_ SH032001 -14.53 122.94 TS 35 0 -14.15 123.12 30 54 980 210 -14.53 122.94 TC 35 6 256
2001 SI WA 16:00:00 TS -14.44 122.91 55 980 bom 209 202 P_____O_____P_ SH032001 -14.55 122.86 TS 35 0 -14.20 123.00 30 55 980 4.00 215 3 5 -14.55 122.86 TC 35 6 252
2001 SI WA 18:00:00 TS -14.50 122.70 218 214 O_____P_____O_ jtwc_sh SH032001 -14.60 122.70 TS 35 0 -14.30 122.70 30 55 980 232 -14.60 122.70 TC 35 6 249
2001 SI WA 21:00:00 TS -14.61 122.43 219 208 P_____P_____P_ SH032001 -14.69 122.49 TS 40 0 -14.46 122.30 30 55 980 259 -14.69 122.49 TC 40 6 246
2001 SI WA 22:00:00 TS -14.65 122.35 55 980 bom 208 211 P_____O_____P_ SH032001 -14.73 122.43 TS 41 0 -14.50 122.20 30 55 980 4.00 269 3 5 -14.73 122.43 TC 41 4 243
2001 SI WA 2000-12-06 00:00:00 TS -14.71 122.24 214 208 O_____P_____O_ jtwc_sh SH032001 -14.80 122.30 TS 45 0 -14.53 122.11 30 56 978 269 -14.80 122.30 TC 45 3 243
2001 SI WA 03:00:00 TS -14.78 122.09 208 208 P_____P_____P_ SH032001 -14.89 122.08 TS 45 0 -14.57 122.10 30 59 975 269 -14.89 122.08 TC 45 3 241
2001 SI WA 04:00:00 TS -14.81 122.05 60 975 bom 213 203 P_____O_____P_ SH032001 -14.92 122.02 TS 45 0 -14.60 122.10 30 60 975 4.00 269 3 5 -14.92 122.02 TC 45 4 226
2001 SI WA 06:00:00 TS -14.91 121.95 203 189 O_____P_____O_ jtwc_sh SH032001 -15.00 121.90 TS 45 0 -14.72 122.06 30 60 975 251 -15.00 121.90 TC 45 4 212
2001 SI WA 09:00:00 TS -15.11 121.86 189 187 P_____P_____P_ SH032001 -15.16 121.78 TS 47 0 -14.99 122.01 30 60 975 224 -15.16 121.78 TC 47 5 203
2001 SI WA 10:00:00 TS -15.19 121.83 60 975 bom 187 170 P_____O_____P_ SH032001 -15.23 121.75 TS 48 0 -15.10 122.00 30 60 975 4.00 215 3 5 -15.23 121.75 TC 48 6 191
2001 SI WA 12:00:00 TS -15.38 121.80 170 146 O_____P_____O_ jtwc_sh SH032001 -15.40 121.70 TS 50 0 -15.33 122.01 30 60 975 215 -15.40 121.70 TC 50 6 187
2001 SI WA 15:00:00 TS -15.72 121.77 146 139 P_____P_____P_ SH032001 -15.73 121.64 TS 52 0 -15.69 122.01 30 60 975 215 -15.73 121.64 TC 52 7 186
2001 SI WA 16:00:00 TS -15.84 121.75 60 975 bom 139 132 P_____O_____P_ SH032001 -15.86 121.63 TS 53 0 -15.80 122.00 30 60 975 4.00 215 3 5 -15.86 121.63 TC 53 7 188
2001 SI WA 18:00:00 TS -16.07 121.72 123 115 O_____P_____O_ jtwc_sh SH032001 -16.10 121.60 TS 55 0 -16.00 121.95 30 60 975 215 -16.10 121.60 TC 55 7 190
2001 SI WA 19:00:00 TS -16.17 121.69 60 975 bom 115 108 P_____O_____P_ SH032001 -16.21 121.59 TS 56 0 -16.10 121.90 30 60 975 4.00 215 3 5 -16.21 121.59 TC 56 6 194
2001 SI WA 21:00:00 TS -16.38 121.63 108 100 P_____P_____P_ SH032001 -16.41 121.56 TS 60 0 -16.30 121.77 30 63 971 215 -16.41 121.56 TC 60 6 197
2001 SI WA 22:00:00 TS -16.48 121.59 65 970 bom 100 93 P_____O_____P_ SH032001 -16.51 121.54 TS 61 0 -16.40 121.70 40 65 970 4.00 215 3 5 -16.51 121.54 TC 61 6 200
2001 SI WA 2000-12-07 00:00:00 TS -16.67 121.52 96 91 O_____P_____O_ jtwc_sh SH032001 -16.70 121.50 TY 65 1 -16.60 121.57 40 65 970 215 -16.70 121.50 TC 65 6 200
2001 SI WA 01:00:00 TS -16.76 121.48 65 970 bom 91 91 P_____O_____P_ SH032001 -16.79 121.47 TY 66 1 -16.70 121.50 40 65 970 4.50 215 16 6 5 -16.79 121.47 TC 66 6 205
2001 SI WA 03:00:00 TS -16.94 121.39 96 91 P_____P_____P_ SH032001 -16.97 121.41 TY 70 1 -16.89 121.37 40 65 970 232 -16.97 121.41 TC 70 6 205
2001 SI WA 04:00:00 TS -17.03 121.35 65 970 bom 101 95 P_____O_____P_ SH032001 -17.05 121.37 TY 71 1 -17.00 121.30 40 65 970 4.50 242 16 6 5 -17.05 121.37 TC 71 6 206
2001 SI WA 06:00:00 TS -17.23 121.25 95 95 O_____P_____O_ jtwc_sh SH032001 -17.20 121.30 TY 75 1 -17.28 121.16 40 65 970 242 -17.20 121.30 TC 75 6 205
2001 SI WA 07:00:00 TS -17.32 121.21 65 970 bom 101 98 P_____O_____P_ SH032001 -17.28 121.26 TY 76 1 -17.40 121.10 40 65 970 4.50 242 11 6 5 -17.28 121.26 TC 76 5 205
2001 SI WA 09:00:00 TS -17.47 121.14 106 106 P_____P_____P_ SH032001 -17.42 121.19 TY 80 1 -17.55 121.03 40 71 966 224 -17.42 121.19 TC 80 5 204
2001 SI WA 10:00:00 TS -17.53 121.11 75 965 bom 106 106 P_____O_____P_ SH032001 -17.49 121.16 TY 81 1 -17.60 121.00 40 75 965 4.50 215 12 6 5 -17.49 121.16 TC 81 4 209
2001 SI WA 12:00:00 TS -17.62 121.04 116 116 O_____P_____O_ jtwc_sh SH032001 -17.60 121.10 TY 85 2 -17.67 120.93 40 78 961 215 -17.60 121.10 TC 85 3 213
2001 SI WA 13:00:00 TS -17.66 121.02 80 960 bom 117 117 P_____O_____P_ SH032001 -17.64 121.07 TY 89 2 -17.70 120.90 40 80 960 5.00 215 10 6 5 -17.64 121.07 TC 89 3 218
2001 SI WA 15:00:00 TS -17.73 120.97 117 117 P_____P_____P_ SH032001 -17.71 121.03 TY 97 3 -17.77 120.83 40 86 956 197 -17.71 121.03 TC 97 2 216
2001 SI WA 16:00:00 TS -17.76 120.95 90 955 bom 123 123 P_____O_____P_ SH032001 -17.74 121.02 TY 101 3 -17.80 120.80 40 90 955 5.50 188 10 6 5 -17.74 121.02 TC 101 2 201
2001 SI WA 18:00:00 TS -17.82 120.93 123 115 O_____P_____O_ jtwc_sh SH032001 -17.80 121.00 TY 110 3 -17.87 120.79 40 90 951 188 -17.80 121.00 TC 110 2 0
2001 SI WA 19:00:00 TS -17.86 120.93 90 950 bom 115 115 P_____O_____P_ SH032001 -17.84 120.99 TY 110 3 -17.90 120.80 40 90 950 5.50 188 9 6 5 -17.84 120.99 TC 110 2 191
2001 SI WA 21:00:00 TS -17.93 120.92 115 107 P_____P_____P_ SH032001 -17.94 120.98 TY 110 3 -17.90 120.79 40 90 950 188 -17.94 120.98 TC 110 2 0
2001 SI WA 22:00:00 TS -17.96 120.92 90 950 bom 107 107 P_____O_____P_ SH032001 -17.99 120.98 TY 110 3 -17.90 120.80 40 90 950 5.50 188 9 6 5 -17.99 120.98 TC 110 3 164
2001 SI WA 2000-12-08 00:00:00 TS -18.05 120.95 92 92 O_____P_____O_ jtwc_sh SH032001 -18.10 121.00 TY 110 3 -17.96 120.86 40 90 950 188 -18.10 121.00 TC 110 3 156
2001 SI WA 01:00:00 TS -18.10 120.98 90 950 bom 92 86 P_____O_____P_ SH032001 -18.15 121.02 TY 110 3 -18.00 120.90 40 90 950 5.50 188 9 6 5 -18.15 121.02 TC 110 3 148
2001 SI WA 03:00:00 TS -18.18 121.04 86 77 P_____P_____P_ SH032001 -18.24 121.08 TY 110 3 -18.05 120.96 40 90 950 188 -18.24 121.08 TC 110 3 145
2001 SI WA 04:00:00 TS -18.23 121.08 90 950 bom 77 57 P_____O_____P_ SH032001 -18.29 121.11 TY 110 3 -18.10 121.00 40 90 950 5.50 188 9 6 5 -18.29 121.11 TC 110 5 145
2001 SI WA 06:00:00 TS -18.37 121.18 57 57 O_____P_____O_ jtwc_sh SH032001 -18.40 121.20 TY 110 3 -18.30 121.13 40 96 946 188 -18.40 121.20 TC 110 5 146
2001 SI WA 07:00:00 TS -18.44 121.23 100 945 bom 57 42 P_____O_____P_ SH032001 -18.46 121.24 TY 109 3 -18.40 121.20 40 100 945 6.00 188 8 6 5 -18.46 121.24 TC 109 5 144
2001 SI WA 09:00:00 TS -18.57 121.34 42 31 P_____P_____P_ SH032001 -18.59 121.34 TY 107 3 -18.53 121.33 40 106 941 170 -18.59 121.34 TC 107 5 141
2001 SI WA 10:00:00 TS -18.64 121.40 110 940 bom 31 21 P_____O_____P_ SH032001 -18.66 121.39 TY 106 3 -18.60 121.40 40 110 940 6.50 161 8 6 6 -18.66 121.39 TC 106 6 143
2001 SI WA 12:00:00 TS -18.80 121.52 21 10 O_____P_____O_ jtwc_sh SH032001 -18.80 121.50 TY 105 3 -18.79 121.55 40 110 936 161 -18.80 121.50 TC 105 6 146
2001 SI WA 13:00:00 TS -18.88 121.56 110 935 bom 10 0 P_____O_____P_ SH032001 -18.86 121.55 TY 103 3 -18.90 121.60 40 110 935 6.50 161 8 6 6 -18.86 121.55 TC 103 5 157
2001 SI WA 15:00:00 TS -19.03 121.62 0 0 P_____P_____P_ SH032001 -18.99 121.64 TY 100 3 -19.12 121.59 40 103 938 161 -18.99 121.64 TC 100 5 158
2001 SI WA 16:00:00 TS -19.11 121.66 100 940 bom 0 0 P_____O_____P_ SH032001 -19.06 121.69 TY 98 3 -19.20 121.60 40 100 940 6.00 161 8 6 5 -19.06 121.69 TC 98 5 139
2001 SI WA 18:00:00 TS -19.22 121.79 0 0 O_____P_____O_ jtwc_sh SH032001 -19.20 121.80 TY 95 2 -19.27 121.78 40 90 946 161 -19.20 121.80 TC 95 5 132
2001 SI WA 19:00:00 TS -19.28 121.87 85 950 bom 0 0 P_____O_____P_ SH032001 -19.27 121.86 TY 92 2 -19.30 121.90 40 85 950 161 8 6 5 -19.27 121.86 TC 92 6 134
2001 SI WA 21:00:00 TS -19.43 122.03 0 0 P_____P_____P_ SH032001 -19.43 121.99 TY 87 2 -19.42 122.11 40 81 953 161 -19.43 121.99 TC 87 6 137
2001 SI WA 22:00:00 TS -19.51 122.10 80 955 bom 0 0 P_____O_____P_ SH032001 -19.52 122.05 TY 84 2 -19.50 122.20 40 80 955 161 8 6 5 -19.52 122.05 TC 84 7 142
2001 SI WA 2000-12-09 00:00:00 TS -19.70 122.25 0 0 O_____P_____O_ jtwc_sh SH032001 -19.70 122.20 TY 80 1 -19.69 122.34 40 73 958 161 -19.70 122.20 TC 80 7 145
2001 SI WA 01:00:00 TS -19.80 122.32 70 960 bom 0 0 P_____O_____P_ SH032001 -19.80 122.28 TY 78 1 -19.80 122.40 40 70 960 161 6 5 -19.80 122.28 TC 78 8 145
2001 SI WA 03:00:00 TS -20.01 122.48 0 0 P_____P_____P_ SH032001 -20.01 122.45 TY 75 1 -20.00 122.53 40 66 963 178 -20.01 122.45 TC 75 8 144
2001 SI WA 04:00:00 TS -20.11 122.56 65 965 bom 0 0 P_____O_____P_ SH032001 -20.11 122.54 TY 73 1 -20.10 122.60 40 65 965 188 4 5 -20.11 122.54 TC 73 8 141
2001 SI WA 06:00:00 TS -20.30 122.73 0 0 O_____P_____O_ jtwc_sh SH032001 -20.30 122.70 TY 70 1 -20.31 122.79 40 61 968 188 -20.30 122.70 TC 70 7 140
2001 SI WA 07:00:00 TS -20.39 122.81 60 970 bom 0 0 P_____O_____P_ SH032001 -20.38 122.77 TY 67 1 -20.40 122.90 30 60 970 188 4 5 -20.38 122.77 TC 67 7 133
2001 SI WA 09:00:00 TS -20.53 122.98 0 0 P_____P_____P_ SH032001 -20.52 122.89 TY 62 0 -20.54 123.17 30 56 973 188 -20.52 122.89 TC 62 6 130
2001 SI WA 10:00:00 TS -20.59 123.07 55 975 bom 0 0 P_____O_____P_ SH032001 -20.59 122.96 TY 59 0 -20.60 123.30 30 55 975 188 4 5 -20.59 122.96 TC 59 6 128
2001 SI WA 12:00:00 TS -20.71 123.24 0 0 O_____P_____O_ jtwc_sh SH032001 -20.70 123.10 TS 55 0 -20.74 123.51 30 51 978 188 -20.70 123.10 TC 55 6 128
2001 SI WA 13:00:00 TS -20.77 123.33 50 980 bom 0 0 P_____O_____P_ SH032001 -20.76 123.19 TS 54 0 -20.80 123.60 30 50 980 188 4 5 -20.76 123.19 TC 54 6 120
2001 SI WA 15:00:00 TS -20.87 123.53 0 0 P_____P_____P_ SH032001 -20.87 123.39 TS 52 0 -20.87 123.81 30 46 980 170 -20.87 123.39 TC 52 6 116
2001 SI WA 16:00:00 TS -20.91 123.63 45 980 bom 0 0 P_____O_____P_ SH032001 -20.91 123.49 TS 51 0 -20.90 123.90 30 45 980 161 4 5 -20.91 123.49 TC 51 6 114
2001 SI WA 18:00:00 TS -20.99 123.82 0 0 O_____P_____O_ jtwc_sh SH032001 -21.00 123.70 TS 50 0 -20.96 124.05 30 41 981 161 -21.00 123.70 TC 50 6 114
2001 SI WA 21:00:00 TS -21.10 124.08 0 0 P_____P_____P_ SH032001 -21.11 124.00 TS 47 0 -21.06 124.23 30 36 984 161 -21.11 124.00 TC 47 5 114
2001 SI WA 22:00:00 TS -21.13 124.17 35 985 bom 0 0 P_____O_____P_ SH032001 -21.15 124.10 TS 46 0 -21.10 124.30 30 35 985 161 4 5 -21.15 124.10 TC 46 6 113
2001 SI WA 2000-12-10 00:00:00 TS -21.21 124.37 0 0 O_____P_____O_ jtwc_sh SH032001 -21.20 124.30 TS 45 0 -21.22 124.50 30 35 985 152 -21.20 124.30 TC 45 6 111
2001 SI WA 03:00:00 TS -21.32 124.68 0 0 P_____P_____P_ SH032001 -21.26 124.62 TS 42 0 -21.43 124.81 30 35 985 138 -21.26 124.62 TC 42 6 110
2001 SI WA 04:00:00 TS -21.35 124.78 35 985 bom 0 0 P_____O_____P_ SH032001 -21.27 124.72 TS 41 0 -21.50 124.90 30 35 985 134 4 5 -21.27 124.72 TC 41 5 111
2001 SI WA 06:00:00 TS -21.41 124.94 0 0 O_____P_____O_ jtwc_sh SH032001 -21.30 124.90 TS 40 0 -21.63 125.02 30 33 986 116 -21.30 124.90 TC 40 4 116
2001 SI WA 09:00:00 TS -21.50 125.12 0 0 P_____P_____P_ SH032001 -21.36 125.11 TS 35 0 -21.77 125.15 30 30 989 89 -21.36 125.11 TC 35 4 117
2001 SI WA 10:00:00 TS -21.52 125.18 30 990 bom 0 0 P_____O_____P_ SH032001 -21.38 125.17 TS 33 -1 -21.80 125.20 20 30 990 80 4 5 -21.38 125.17 TC 33 4 107
2001 SI WA 12:00:00 TS -21.56 125.32 0 0 O_____P_____O_ jtwc_sh SH032001 -21.40 125.30 TD 30 -1 -21.80 125.35 20 30 990 80 -21.40 125.30 TC 30 4 93
2001 SI WA 15:00:00 TS -21.54 125.56 0 0 P_____P_____P_ SH032001 -21.37 125.54 TD 27 -1 -21.71 125.59 20 30 990 80 -21.37 125.54 TC 27 5 83
2001 SI WA 18:00:00 TS -21.50 125.80 30 990 bom 0 0 O_____O_____O_ jtwc_sh SH032001 -21.30 125.80 TD 25 -1 -21.60 125.80 20 30 990 80 4 5 -21.30 125.80 TC 25 3 91
2001 SI WA 21:00:00 NR -21.55 125.86 0 0 ______P_______ SH032001 TD -1 -21.55 125.86 20 30 991 80 TC 2 90
2001 SI WA 2000-12-11 00:00:00 NR -21.50 126.00 30 992 bom 0 0 ______O_______ -1 -21.50 126.00 20 30 992 80 4 5 5 80
2001 SI WA 03:00:00 NR -21.46 126.38 0 0 ______P_______ -1 -21.46 126.38 20 30 994 80 8 83
2001 SI WA 06:00:00 NR -21.40 126.90 30 996 bom 0 0 ______O_______ -1 -21.40 126.90 20 30 996 80 4 5 10 84
2001 SI WA 09:00:00 NR -21.35 127.48 0 0 ______P_______ -1 -21.35 127.48 20 30 995 80 10 79
2001 SI WA 12:00:00 NR -21.20 128.00 30 995 bom 0 0 ______O_______ -1 -21.20 128.00 20 30 995 80 4 5 9 58
2001 SI WA 15:00:00 NR -20.87 128.29 0 0 ______P_______ -1 -20.87 128.29 20 30 994 80 8 34
2001 SI WA 18:00:00 NR -20.50 128.50 30 994 bom 0 0 ______O_______ -1 -20.50 128.50 20 30 994 80 4 5 8 32
2001 SI WA 21:00:00 NR -20.19 128.75 0 0 ______P_______ -1 -20.19 128.75 20 30 993 80 7 43
2001 SI WA 2000-12-12 00:00:00 NR -20.00 129.00 30 992 bom 0 0 ______O_______ -1 -20.00 129.00 20 30 992 80 4 5 5 66
2001 SI WA 03:00:00 NR -19.98 129.25 0 0 ______P_______ -1 -19.98 129.25 20 30 991 80 5 102
2001 SI WA 06:00:00 NR -20.10 129.50 30 990 bom 0 0 ______O_______ -1 -20.10 129.50 20 30 990 80 4 5 5 127
2001 SI WA 09:00:00 NR -20.31 129.71 0 0 ______P_______ -1 -20.31 129.71 20 30 988 80 6 131
2001 SI WA 12:00:00 NR -20.50 130.00 30 987 bom 0 0 ______O_______ -1 -20.50 130.00 20 30 987 80 4 5 7 108
2001 SI WA 15:00:00 NR -20.53 130.46 0 0 ______P_______ -1 -20.53 130.46 20 30 988 80 9 90
2001 SI WA 18:00:00 NR -20.50 131.00 30 989 bom 0 0 ______O_______ -1 -20.50 131.00 20 30 989 80 4 5 10 88
2001 SI WA 21:00:00 NR -20.50 131.50 0 0 ______P_______ -1 -20.50 131.50 20 30 989 80 9 90
2001 SI WA 2000-12-13 00:00:00 NR -20.50 132.00 30 990 bom 0 0 ______O_______ -1 -20.50 132.00 20 30 990 80 4 5 9 90
2001 SI WA 03:00:00 NR -20.50 132.50 0 0 ______P_______ -1 -20.50 132.50 20 30 991 80 9 90
2001 SI WA 06:00:00 NR -20.50 133.00 30 992 bom 0 0 ______O_______ -1 -20.50 133.00 20 30 992 80 4 5 10 90
2001 SI WA 09:00:00 NR -20.50 133.51 0 0 ______P_______ -1 -20.50 133.51 20 30 993 80 9 90
2001 SI WA 12:00:00 NR -20.50 134.00 30 994 bom 0 0 ______O_______ -1 -20.50 134.00 20 30 994 80 4 5 9 90
2001 SI WA 15:00:00 NR -20.50 134.42 0 0 ______P_______ -1 -20.50 134.42 20 30 995 80 7 90
2001 SI WA 18:00:00 NR -20.50 134.80 30 996 bom 0 0 ______O_______ -1 -20.50 134.80 20 30 996 80 4 5 7 90
2001 SP EA 21:00:00 NR -20.50 135.15 0 0 ______P_______ -1 -20.50 135.15 20 30 997 80 7 90
2001 SP EA 2000-12-14 00:00:00 NR -20.50 135.50 30 998 bom 0 ______O_______ -1 -20.50 135.50 20 30 998 80 4 5 6 90